Terminal Aerodrome Forecast
Issued by NWS

Home | Current Version | Previous Version | Graphics & Text | Print | Product List | Glossary On
Versions: 1 2 3 4 5 6 7 8 9 10 11 12 13 14 15 16 17 18
627
FTUS43 KMPX 271725
TAFAXN
TAF
KAXN 271725Z 2718/2818 08020G30KT P6SM SCT020 OVC060
     FM280200 07013KT P6SM -RA BKN050 OVC100
     FM280900 07008KT P6SM VCSH SCT040 OVC090
     FM281200 06010KT P6SM SCT015 BKN040=

USA.gov is the U.S. government's official web portal to all federal, state and local government web resources and services.